Stowe, VT (05662)

3:07 AM EDT on September 01, 2016 (GMT -0400)
Stowe Hollow | | Change Station

Elev 1155 ft 44.45 °N, 72.67 °W | Updated 33 seconds ago

Overcast
Overcast
63.7 °F
Feels Like 63.7 °F
N
0.0
Wind Variable Wind from SW
Gusts 0.0 mph

Today
High -- | Low -- °F
--% Chance of Precip.
Yesterday
High -- | Low -- °F
Precip. -- in
Pressure 29.86 in
Visibility 7.0 miles
Clouds Mostly Cloudy 1900 ft
Overcast 5000 ft
Dew Point 63 °F
Humidity 97%
Rainfall 0.11 in
Snow Depth Not available.
6:13 AM 7:26 PM
Waning Crescent, 0% visible
METAR KMVL 010654Z AUTO 00000KT 7SM BKN019 OVC050 17/16 A2987 RMK AO2 RAB09E47 SLP111 P0002 T01720161 TSNO
Pressure 29.86 in
Visibility 7.0 miles
Clouds Mostly Cloudy 1900 ft
Overcast 5000 ft
Dew Point 63 °F
Humidity 97%
Rainfall 0.11 in
Snow Depth Not available.
6:13 AM 7:26 PM
Waning Crescent, 0% visible
METAR KMVL 010654Z AUTO 00000KT 7SM BKN019 OVC050 17/16 A2987 RMK AO2 RAB09E47 SLP111 P0002 T01720161 TSNO

10-Day Weather Forecast

Almanac

Astronomy

Sep. 01, 2016 Rise Set
Actual Time
Civil Twilight
Nautical Twilight
Astronomical Twilight
Moon
Length of Visible Light
Length of Day
Tomorrow will be .
, % of the Moon is Illuminated

Today's Extremes

State Highs State Lows

Community

WunderPhotos

Upload Photos

1,936,314 photos uploaded!

WunderBlog® & News

Nearby

Air Quality

  Air Quality AQ Index Pollutant
Not available.

Snow Depth

Station Depth Elevation

Earthquake Activity

City Distance Mag. Time & Date
Minimum magnitude displayed is 2.5.

Coastal Water Temperatures

Place Temperature

Stations

Nearby Weather Stations

Station Location Temp. Windchill Dew Point Humidity Wind Precip. Elev Updated Type
                   

Watches & Warnings

There are currently no watches in effect.